sensor_id;sensor_type;location;lat;lon;timestamp;pressure;altitude;pressure_sealevel;temperature;humidity
13015;BME280;6573;57.696;11.950;2023-08-31T00:00:50;100474.34;;;18.36;100.00
13015;BME280;6573;57.696;11.950;2023-08-31T00:03:19;100461.22;;;18.32;100.00
13015;BME280;6573;57.696;11.950;2023-08-31T00:05:47;100467.72;;;18.25;100.00
13015;BME280;6573;57.696;11.950;2023-08-31T00:08:19;100468.03;;;18.39;100.00
13015;BME280;6573;57.696;11.950;2023-08-31T00:10:55;100466.25;;;18.16;100.00
13015;BME280;6573;57.696;11.950;2023-08-31T00:13:24;100466.03;;;18.22;100.00
13015;BME280;6573;57.696;11.950;2023-08-31T00:15:55;100453.16;;;18.11;100.00
13015;BME280;6573;57.696;11.950;2023-08-31T00:18:25;100464.84;;;18.07;100.00
13015;BME280;6573;57.696;11.950;2023-08-31T00:20:53;100461.56;;;18.01;100.00
13015;BME280;6573;57.696;11.950;2023-08-31T00:23:23;100460.72;;;18.22;100.00
13015;BME280;6573;57.696;11.950;2023-08-31T00:25:52;100459.84;;;18.22;100.00
13015;BME280;6573;57.696;11.950;2023-08-31T00:28:20;100462.31;;;18.04;100.00
13015;BME280;6573;57.696;11.950;2023-08-31T00:30:55;100469.59;;;17.99;100.00
13015;BME280;6573;57.696;11.950;2023-08-31T00:33:26;100462.00;;;17.89;100.00
13015;BME280;6573;57.696;11.950;2023-08-31T00:35:54;100466.59;;;17.85;100.00
13015;BME280;6573;57.696;11.950;2023-08-31T00:38:24;100464.28;;;17.76;100.00
13015;BME280;6573;57.696;11.950;2023-08-31T00:40:53;100474.13;;;17.74;100.00
13015;BME280;6573;57.696;11.950;2023-08-31T00:43:22;100457.81;;;17.83;100.00
13015;BME280;6573;57.696;11.950;2023-08-31T00:45:51;100471.56;;;17.94;100.00
13015;BME280;6573;57.696;11.950;2023-08-31T00:48:21;100476.88;;;17.94;100.00
13015;BME280;6573;57.696;11.950;2023-08-31T00:50:49;100468.22;;;17.89;100.00
13015;BME280;6573;57.696;11.950;2023-08-31T00:53:18;100466.34;;;17.91;100.00
13015;BME280;6573;57.696;11.950;2023-08-31T00:55:51;100467.59;;;17.83;100.00
13015;BME280;6573;57.696;11.950;2023-08-31T00:58:19;100468.78;;;17.74;100.00
13015;BME280;6573;57.696;11.950;2023-08-31T01:00:58;100469.47;;;17.79;100.00
13015;BME280;6573;57.696;11.950;2023-08-31T01:03:34;100458.84;;;17.79;100.00
13015;BME280;6573;57.696;11.950;2023-08-31T01:06:12;100458.22;;;17.73;100.00
13015;BME280;6573;57.696;11.950;2023-08-31T01:08:47;100449.44;;;17.46;100.00
13015;BME280;6573;57.696;11.950;2023-08-31T01:11:29;100461.63;;;17.52;100.00
13015;BME280;6573;57.696;11.950;2023-08-31T01:14:02;100468.06;;;17.46;100.00
13015;BME280;6573;57.696;11.950;2023-08-31T01:16:35;100467.28;;;17.67;100.00
13015;BME280;6573;57.696;11.950;2023-08-31T01:19:07;100459.91;;;17.75;100.00
13015;BME280;6573;57.696;11.950;2023-08-31T01:21:40;100469.16;;;17.88;100.00
13015;BME280;6573;57.696;11.950;2023-08-31T01:24:12;100459.44;;;17.87;100.00
13015;BME280;6573;57.696;11.950;2023-08-31T01:26:41;100466.94;;;17.76;100.00
13015;BME280;6573;57.696;11.950;2023-08-31T01:29:10;100465.69;;;17.63;100.00
13015;BME280;6573;57.696;11.950;2023-08-31T01:31:42;100469.25;;;17.62;100.00
13015;BME280;6573;57.696;11.950;2023-08-31T01:34:12;100459.84;;;17.54;100.00
13015;BME280;6573;57.696;11.950;2023-08-31T01:37:00;100466.56;;;17.39;100.00
13015;BME280;6573;57.696;11.950;2023-08-31T01:39:39;100468.72;;;17.28;100.00
13015;BME280;6573;57.696;11.950;2023-08-31T01:42:11;100463.50;;;17.25;100.00
13015;BME280;6573;57.696;11.950;2023-08-31T01:44:42;100456.78;;;17.15;100.00
13015;BME280;6573;57.696;11.950;2023-08-31T01:47:11;100451.53;;;17.13;100.00
13015;BME280;6573;57.696;11.950;2023-08-31T01:49:40;100457.03;;;17.32;100.00
13015;BME280;6573;57.696;11.950;2023-08-31T01:52:10;100454.50;;;17.29;100.00
13015;BME280;6573;57.696;11.950;2023-08-31T01:54:39;100456.22;;;17.30;100.00
13015;BME280;6573;57.696;11.950;2023-08-31T01:57:08;100442.47;;;17.19;100.00
13015;BME280;6573;57.696;11.950;2023-08-31T01:59:36;100454.72;;;17.23;100.00
13015;BME280;6573;57.696;11.950;2023-08-31T02:02:04;100458.19;;;17.25;100.00
13015;BME280;6573;57.696;11.950;2023-08-31T02:04:32;100459.81;;;17.29;100.00
13015;BME280;6573;57.696;11.950;2023-08-31T02:07:00;100453.09;;;17.19;100.00
13015;BME280;6573;57.696;11.950;2023-08-31T02:09:29;100448.75;;;17.16;100.00
13015;BME280;6573;57.696;11.950;2023-08-31T02:11:58;100453.09;;;17.19;100.00
13015;BME280;6573;57.696;11.950;2023-08-31T02:14:27;100441.34;;;17.00;100.00
13015;BME280;6573;57.696;11.950;2023-08-31T02:16:57;100453.09;;;17.19;100.00
13015;BME280;6573;57.696;11.950;2023-08-31T02:19:25;100451.72;;;17.32;100.00
13015;BME280;6573;57.696;11.950;2023-08-31T02:21:53;100443.97;;;17.01;100.00
13015;BME280;6573;57.696;11.950;2023-08-31T02:24:22;100439.66;;;16.99;100.00
13015;BME280;6573;57.696;11.950;2023-08-31T02:26:50;100442.50;;;16.93;100.00
13015;BME280;6573;57.696;11.950;2023-08-31T02:29:19;100437.44;;;16.85;100.00
13015;BME280;6573;57.696;11.950;2023-08-31T02:31:48;100432.38;;;16.79;100.00
13015;BME280;6573;57.696;11.950;2023-08-31T02:34:16;100427.06;;;16.79;100.00
13015;BME280;6573;57.696;11.950;2023-08-31T02:36:44;100430.97;;;16.94;100.00
13015;BME280;6573;57.696;11.950;2023-08-31T02:39:13;100430.16;;;16.92;100.00
13015;BME280;6573;57.696;11.950;2023-08-31T02:41:41;100431.50;;;17.03;100.00
13015;BME280;6573;57.696;11.950;2023-08-31T02:44:10;100429.44;;;17.11;100.00
13015;BME280;6573;57.696;11.950;2023-08-31T02:46:40;100435.19;;;16.99;100.00
13015;BME280;6573;57.696;11.950;2023-08-31T02:49:08;100435.66;;;16.86;100.00
13015;BME280;6573;57.696;11.950;2023-08-31T02:51:36;100431.50;;;16.78;100.00
13015;BME280;6573;57.696;11.950;2023-08-31T02:54:05;100433.75;;;16.64;100.00
13015;BME280;6573;57.696;11.950;2023-08-31T02:56:33;100421.75;;;16.51;100.00
13015;BME280;6573;57.696;11.950;2023-08-31T02:59:01;100431.59;;;16.75;100.00
13015;BME280;6573;57.696;11.950;2023-08-31T03:01:29;100431.59;;;16.75;100.00
13015;BME280;6573;57.696;11.950;2023-08-31T03:03:59;100415.66;;;16.75;100.00
13015;BME280;6573;57.696;11.950;2023-08-31T03:06:27;100422.03;;;16.70;100.00
13015;BME280;6573;57.696;11.950;2023-08-31T03:08:55;100422.19;;;16.92;100.00
13015;BME280;6573;57.696;11.950;2023-08-31T03:11:24;100406.44;;;16.86;100.00
13015;BME280;6573;57.696;11.950;2023-08-31T03:13:52;100425.41;;;17.00;100.00
13015;BME280;6573;57.696;11.950;2023-08-31T03:16:20;100423.59;;;17.02;100.00
13015;BME280;6573;57.696;11.950;2023-08-31T03:18:48;100435.75;;;17.09;100.00
13015;BME280;6573;57.696;11.950;2023-08-31T03:21:18;100432.38;;;17.04;100.00
13015;BME280;6573;57.696;11.950;2023-08-31T03:23:47;100431.25;;;16.84;100.00
13015;BME280;6573;57.696;11.950;2023-08-31T03:26:15;100433.13;;;17.07;100.00
13015;BME280;6573;57.696;11.950;2023-08-31T03:28:44;100437.47;;;17.10;100.00
13015;BME280;6573;57.696;11.950;2023-08-31T03:31:12;100424.78;;;17.18;100.00
13015;BME280;6573;57.696;11.950;2023-08-31T03:33:40;100435.31;;;17.21;100.00
13015;BME280;6573;57.696;11.950;2023-08-31T03:36:08;100445.88;;;16.98;100.00
13015;BME280;6573;57.696;11.950;2023-08-31T03:38:38;100444.00;;;17.00;100.00
13015;BME280;6573;57.696;11.950;2023-08-31T03:41:07;100443.38;;;16.93;100.00
13015;BME280;6573;57.696;11.950;2023-08-31T03:43:35;100434.53;;;16.93;100.00
13015;BME280;6573;57.696;11.950;2023-08-31T03:46:03;100433.34;;;16.76;100.00
13015;BME280;6573;57.696;11.950;2023-08-31T03:48:31;100429.75;;;16.77;100.00
13015;BME280;6573;57.696;11.950;2023-08-31T03:51:00;100422.47;;;16.82;100.00
13015;BME280;6573;57.696;11.950;2023-08-31T03:53:28;100417.97;;;16.84;100.00
13015;BME280;6573;57.696;11.950;2023-08-31T03:55:58;100413.09;;;16.72;100.00
13015;BME280;6573;57.696;11.950;2023-08-31T03:58:26;100413.22;;;16.69;100.00
13015;BME280;6573;57.696;11.950;2023-08-31T04:00:54;100406.41;;;16.61;100.00
13015;BME280;6573;57.696;11.950;2023-08-31T04:03:22;100402.28;;;16.52;100.00
13015;BME280;6573;57.696;11.950;2023-08-31T04:05:54;100408.53;;;16.50;100.00
13015;BME280;6573;57.696;11.950;2023-08-31T04:08:22;100407.69;;;16.49;100.00
13015;BME280;6573;57.696;11.950;2023-08-31T04:10:51;100409.88;;;16.63;100.00
13015;BME280;6573;57.696;11.950;2023-08-31T04:13:20;100402.88;;;16.60;100.00
13015;BME280;6573;57.696;11.950;2023-08-31T04:15:49;100407.59;;;16.78;100.00
13015;BME280;6573;57.696;11.950;2023-08-31T04:18:17;100410.22;;;16.54;100.00
13015;BME280;6573;57.696;11.950;2023-08-31T04:20:49;100394.59;;;16.17;100.00
13015;BME280;6573;57.696;11.950;2023-08-31T04:23:19;100391.06;;;16.43;100.00
13015;BME280;6573;57.696;11.950;2023-08-31T04:25:47;100391.75;;;16.49;100.00
13015;BME280;6573;57.696;11.950;2023-08-31T04:28:18;100391.47;;;16.31;100.00
13015;BME280;6573;57.696;11.950;2023-08-31T04:30:48;100392.53;;;16.25;100.00
13015;BME280;6573;57.696;11.950;2023-08-31T04:33:18;100395.63;;;16.39;100.00
13015;BME280;6573;57.696;11.950;2023-08-31T04:35:46;100398.78;;;16.50;100.00
13015;BME280;6573;57.696;11.950;2023-08-31T04:38:14;100399.53;;;16.55;100.00
13015;BME280;6573;57.696;11.950;2023-08-31T04:40:43;100403.94;;;16.81;100.00
13015;BME280;6573;57.696;11.950;2023-08-31T04:43:11;100395.41;;;16.45;100.00
13015;BME280;6573;57.696;11.950;2023-08-31T04:45:40;100407.84;;;16.71;100.00
13015;BME280;6573;57.696;11.950;2023-08-31T04:48:09;100405.34;;;16.66;100.00
13015;BME280;6573;57.696;11.950;2023-08-31T04:50:38;100401.22;;;16.58;100.00
13015;BME280;6573;57.696;11.950;2023-08-31T04:53:06;100412.28;;;16.95;100.00
13015;BME280;6573;57.696;11.950;2023-08-31T04:55:34;100409.81;;;16.91;100.00
13015;BME280;6573;57.696;11.950;2023-08-31T04:58:03;100410.16;;;17.06;100.00
13015;BME280;6573;57.696;11.950;2023-08-31T05:00:31;100415.13;;;16.91;100.00
13015;BME280;6573;57.696;11.950;2023-08-31T05:03:00;100414.03;;;16.96;100.00
13015;BME280;6573;57.696;11.950;2023-08-31T05:05:31;100412.25;;;16.97;100.00
13015;BME280;6573;57.696;11.950;2023-08-31T05:08:02;100414.22;;;16.65;100.00
13015;BME280;6573;57.696;11.950;2023-08-31T05:10:31;100422.25;;;16.64;100.00
13015;BME280;6573;57.696;11.950;2023-08-31T05:13:00;100419.34;;;16.71;100.00
13015;BME280;6573;57.696;11.950;2023-08-31T05:15:30;100404.81;;;16.81;100.00
13015;BME280;6573;57.696;11.950;2023-08-31T05:18:00;100420.22;;;16.97;100.00
13015;BME280;6573;57.696;11.950;2023-08-31T05:20:31;100422.75;;;17.00;100.00
13015;BME280;6573;57.696;11.950;2023-08-31T05:23:00;100427.50;;;16.92;100.00
13015;BME280;6573;57.696;11.950;2023-08-31T05:25:28;100429.44;;;16.87;100.00
13015;BME280;6573;57.696;11.950;2023-08-31T05:27:56;100424.66;;;16.71;100.00
13015;BME280;6573;57.696;11.950;2023-08-31T05:30:25;100439.22;;;16.84;100.00
13015;BME280;6573;57.696;11.950;2023-08-31T05:32:53;100430.53;;;16.81;100.00
13015;BME280;6573;57.696;11.950;2023-08-31T05:35:21;100437.53;;;16.82;100.00
13015;BME280;6573;57.696;11.950;2023-08-31T05:37:51;100423.44;;;16.81;100.00
13015;BME280;6573;57.696;11.950;2023-08-31T05:40:19;100423.91;;;16.93;100.00
13015;BME280;6573;57.696;11.950;2023-08-31T05:42:49;100429.13;;;16.96;100.00
13015;BME280;6573;57.696;11.950;2023-08-31T05:45:17;100435.94;;;17.03;100.00
13015;BME280;6573;57.696;11.950;2023-08-31T05:47:45;100433.09;;;17.09;100.00
13015;BME280;6573;57.696;11.950;2023-08-31T05:50:16;100438.88;;;17.20;100.00
13015;BME280;6573;57.696;11.950;2023-08-31T05:52:47;100444.16;;;17.21;100.00
13015;BME280;6573;57.696;11.950;2023-08-31T05:55:16;100442.47;;;17.19;100.00
13015;BME280;6573;57.696;11.950;2023-08-31T05:57:45;100439.84;;;17.17;100.00
13015;BME280;6573;57.696;11.950;2023-08-31T06:00:13;100451.16;;;17.24;100.00
13015;BME280;6573;57.696;11.950;2023-08-31T06:02:43;100455.69;;;17.45;100.00
13015;BME280;6573;57.696;11.950;2023-08-31T06:05:12;100457.22;;;17.52;100.00
13015;BME280;6573;57.696;11.950;2023-08-31T06:07:43;100457.19;;;17.54;100.00
13015;BME280;6573;57.696;11.950;2023-08-31T06:10:11;100451.41;;;17.41;100.00
13015;BME280;6573;57.696;11.950;2023-08-31T06:12:43;100451.97;;;17.49;100.00
13015;BME280;6573;57.696;11.950;2023-08-31T06:15:11;100455.47;;;17.51;100.00
13015;BME280;6573;57.696;11.950;2023-08-31T06:17:41;100450.59;;;17.39;100.00
13015;BME280;6573;57.696;11.950;2023-08-31T06:20:10;100452.31;;;17.40;100.00
13015;BME280;6573;57.696;11.950;2023-08-31T06:22:39;100453.94;;;17.44;100.00
13015;BME280;6573;57.696;11.950;2023-08-31T06:25:07;100441.47;;;17.46;100.00
13015;BME280;6573;57.696;11.950;2023-08-31T06:27:38;100455.78;;;17.42;100.00
13015;BME280;6573;57.696;11.950;2023-08-31T06:30:09;100457.09;;;17.55;100.00
13015;BME280;6573;57.696;11.950;2023-08-31T06:32:39;100459.38;;;17.41;100.00
13015;BME280;6573;57.696;11.950;2023-08-31T06:35:08;100458.59;;;17.62;100.00
13015;BME280;6573;57.696;11.950;2023-08-31T06:37:36;100461.84;;;17.70;100.00
13015;BME280;6573;57.696;11.950;2023-08-31T06:40:05;100458.16;;;17.74;100.00
13015;BME280;6573;57.696;11.950;2023-08-31T06:42:33;100460.22;;;17.89;100.00
13015;BME280;6573;57.696;11.950;2023-08-31T06:45:01;100446.81;;;17.92;100.00
13015;BME280;6573;57.696;11.950;2023-08-31T06:47:31;100457.84;;;18.05;100.00
13015;BME280;6573;57.696;11.950;2023-08-31T06:50:00;100452.44;;;18.06;100.00
13015;BME280;6573;57.696;11.950;2023-08-31T06:52:29;100456.88;;;18.07;100.00
13015;BME280;6573;57.696;11.950;2023-08-31T06:54:58;100465.53;;;18.13;100.00
13015;BME280;6573;57.696;11.950;2023-08-31T06:57:27;100459.34;;;18.12;100.00
13015;BME280;6573;57.696;11.950;2023-08-31T06:59:55;100447.59;;;18.18;100.00
13015;BME280;6573;57.696;11.950;2023-08-31T07:02:25;100466.53;;;18.32;100.00
13015;BME280;6573;57.696;11.950;2023-08-31T07:04:56;100445.13;;;18.35;100.00
13015;BME280;6573;57.696;11.950;2023-08-31T07:07:24;100450.66;;;18.52;100.00
13015;BME280;6573;57.696;11.950;2023-08-31T07:09:52;100452.94;;;18.61;100.00
13015;BME280;6573;57.696;11.950;2023-08-31T07:12:21;100460.75;;;18.65;100.00
13015;BME280;6573;57.696;11.950;2023-08-31T07:14:49;100458.25;;;18.61;100.00
13015;BME280;6573;57.696;11.950;2023-08-31T07:17:18;100453.31;;;18.52;100.00
13015;BME280;6573;57.696;11.950;2023-08-31T07:19:47;100454.91;;;18.56;100.00
13015;BME280;6573;57.696;11.950;2023-08-31T07:22:17;100459.59;;;18.71;100.00
13015;BME280;6573;57.696;11.950;2023-08-31T07:24:45;100475.31;;;18.57;100.00
13015;BME280;6573;57.696;11.950;2023-08-31T07:27:14;100461.75;;;18.63;100.00
13015;BME280;6573;57.696;11.950;2023-08-31T07:29:42;100460.59;;;18.90;100.00
13015;BME280;6573;57.696;11.950;2023-08-31T07:32:10;100464.06;;;18.92;100.00
13015;BME280;6573;57.696;11.950;2023-08-31T07:34:38;100464.78;;;18.96;100.00
13015;BME280;6573;57.696;11.950;2023-08-31T07:37:06;100467.75;;;18.88;100.00
13015;BME280;6573;57.696;11.950;2023-08-31T07:39:36;100470.56;;;19.05;100.00
13015;BME280;6573;57.696;11.950;2023-08-31T07:42:05;100466.41;;;19.00;100.00
13015;BME280;6573;57.696;11.950;2023-08-31T07:44:33;100459.41;;;19.17;100.00
13015;BME280;6573;57.696;11.950;2023-08-31T07:47:01;100470.31;;;19.11;100.00
13015;BME280;6573;57.696;11.950;2023-08-31T07:49:30;100467.06;;;19.25;100.00
13015;BME280;6573;57.696;11.950;2023-08-31T07:51:58;100457.66;;;19.16;100.00
13015;BME280;6573;57.696;11.950;2023-08-31T07:54:26;100457.25;;;19.25;100.00
13015;BME280;6573;57.696;11.950;2023-08-31T07:56:56;100469.16;;;19.38;100.00
13015;BME280;6573;57.696;11.950;2023-08-31T07:59:24;100465.69;;;19.36;100.00
13015;BME280;6573;57.696;11.950;2023-08-31T08:01:53;100471.66;;;19.62;100.00
13015;BME280;6573;57.696;11.950;2023-08-31T08:04:22;100469.00;;;19.62;100.00
13015;BME280;6573;57.696;11.950;2023-08-31T08:06:51;100465.66;;;19.57;100.00
13015;BME280;6573;57.696;11.950;2023-08-31T08:09:20;100464.75;;;19.76;100.00
13015;BME280;6573;57.696;11.950;2023-08-31T08:11:48;100465.91;;;19.71;100.00
13015;BME280;6573;57.696;11.950;2023-08-31T08:14:19;100472.09;;;19.90;100.00
13015;BME280;6573;57.696;11.950;2023-08-31T08:16:47;100473.06;;;19.89;100.00
13015;BME280;6573;57.696;11.950;2023-08-31T08:19:21;100468.25;;;19.97;100.00
13015;BME280;6573;57.696;11.950;2023-08-31T08:21:49;100476.00;;;19.83;100.00
13015;BME280;6573;57.696;11.950;2023-08-31T08:24:18;100475.16;;;20.01;100.00
13015;BME280;6573;57.696;11.950;2023-08-31T08:26:46;100465.41;;;20.19;100.00
13015;BME280;6573;57.696;11.950;2023-08-31T08:29:15;100465.31;;;20.57;100.00
13015;BME280;6573;57.696;11.950;2023-08-31T08:31:44;100457.31;;;20.75;100.00
13015;BME280;6573;57.696;11.950;2023-08-31T08:34:13;100464.16;;;21.16;100.00
13015;BME280;6573;57.696;11.950;2023-08-31T08:36:41;100468.94;;;21.59;100.00
13015;BME280;6573;57.696;11.950;2023-08-31T08:39:09;100469.34;;;21.84;100.00
13015;BME280;6573;57.696;11.950;2023-08-31T08:41:39;100463.53;;;21.93;100.00
13015;BME280;6573;57.696;11.950;2023-08-31T08:44:08;100464.16;;;21.81;100.00
13015;BME280;6573;57.696;11.950;2023-08-31T08:46:37;100464.69;;;21.72;100.00
13015;BME280;6573;57.696;11.950;2023-08-31T08:49:08;100449.22;;;21.77;100.00
13015;BME280;6573;57.696;11.950;2023-08-31T08:51:37;100460.25;;;22.04;100.00
13015;BME280;6573;57.696;11.950;2023-08-31T08:54:05;100462.69;;;22.09;100.00
13015;BME280;6573;57.696;11.950;2023-08-31T08:56:34;100466.66;;;22.02;100.00
13015;BME280;6573;57.696;11.950;2023-08-31T08:59:02;100468.88;;;21.93;100.00
13015;BME280;6573;57.696;11.950;2023-08-31T09:01:31;100467.09;;;22.10;100.00
13015;BME280;6573;57.696;11.950;2023-08-31T09:03:59;100462.31;;;22.46;100.00
13015;BME280;6573;57.696;11.950;2023-08-31T09:06:29;100457.34;;;22.40;100.00
13015;BME280;6573;57.696;11.950;2023-08-31T09:08:57;100463.19;;;22.31;100.00
13015;BME280;6573;57.696;11.950;2023-08-31T09:11:26;100458.53;;;22.50;100.00
13015;BME280;6573;57.696;11.950;2023-08-31T09:13:56;100452.13;;;22.68;100.00
13015;BME280;6573;57.696;11.950;2023-08-31T09:16:25;100451.94;;;22.71;100.00
13015;BME280;6573;57.696;11.950;2023-08-31T09:18:55;100450.66;;;22.92;100.00
13015;BME280;6573;57.696;11.950;2023-08-31T09:21:36;100440.88;;;23.51;100.00
13015;BME280;6573;57.696;11.950;2023-08-31T09:24:05;100435.66;;;23.90;100.00
13015;BME280;6573;57.696;11.950;2023-08-31T09:26:38;100443.72;;;23.48;100.00
13015;BME280;6573;57.696;11.950;2023-08-31T09:29:07;100440.28;;;23.46;100.00
13015;BME280;6573;57.696;11.950;2023-08-31T09:31:35;100445.66;;;23.46;100.00
13015;BME280;6573;57.696;11.950;2023-08-31T09:34:03;100445.84;;;23.43;100.00
13015;BME280;6573;57.696;11.950;2023-08-31T09:36:32;100440.28;;;23.46;100.00
13015;BME280;6573;57.696;11.950;2023-08-31T09:39:01;100445.47;;;23.77;100.00
13015;BME280;6573;57.696;11.950;2023-08-31T09:41:31;100459.09;;;23.88;100.00
13015;BME280;6573;57.696;11.950;2023-08-31T09:44:14;100452.75;;;23.75;100.00
13015;BME280;6573;57.696;11.950;2023-08-31T09:46:44;100454.47;;;23.48;100.00
13015;BME280;6573;57.696;11.950;2023-08-31T09:49:14;100433.66;;;23.37;100.00
13015;BME280;6573;57.696;11.950;2023-08-31T09:51:45;100437.03;;;23.69;100.00
13015;BME280;6573;57.696;11.950;2023-08-31T09:54:16;100437.88;;;23.69;100.00
13015;BME280;6573;57.696;11.950;2023-08-31T09:56:46;100448.53;;;23.85;100.00
13015;BME280;6573;57.696;11.950;2023-08-31T09:59:16;100441.50;;;23.97;100.00
13015;BME280;6573;57.696;11.950;2023-08-31T10:01:45;100442.38;;;23.97;100.00
13015;BME280;6573;57.696;11.950;2023-08-31T10:04:14;100435.84;;;24.15;100.00
13015;BME280;6573;57.696;11.950;2023-08-31T10:06:43;100438.13;;;24.35;100.00
13015;BME280;6573;57.696;11.950;2023-08-31T10:09:15;100429.69;;;23.99;100.00
13015;BME280;6573;57.696;11.950;2023-08-31T10:11:45;100432.94;;;24.04;100.00
13015;BME280;6573;57.696;11.950;2023-08-31T10:14:15;100436.19;;;24.37;100.00
13015;BME280;6573;57.696;11.950;2023-08-31T10:16:44;100430.72;;;24.66;100.00
13015;BME280;6573;57.696;11.950;2023-08-31T10:19:13;100434.78;;;24.18;100.00
13015;BME280;6573;57.696;11.950;2023-08-31T10:21:41;100436.25;;;23.81;100.00
13015;BME280;6573;57.696;11.950;2023-08-31T10:24:11;100437.38;;;24.19;100.00
13015;BME280;6573;57.696;11.950;2023-08-31T10:26:41;100427.41;;;24.48;100.00
13015;BME280;6573;57.696;11.950;2023-08-31T10:29:25;100428.91;;;24.52;100.00
13015;BME280;6573;57.696;11.950;2023-08-31T10:32:00;100428.88;;;24.39;100.00
13015;BME280;6573;57.696;11.950;2023-08-31T10:34:36;100422.72;;;24.37;100.00
13015;BME280;6573;57.696;11.950;2023-08-31T10:37:19;100431.38;;;24.42;100.00
13015;BME280;6573;57.696;11.950;2023-08-31T10:39:48;100418.53;;;24.33;100.00
13015;BME280;6573;57.696;11.950;2023-08-31T10:42:18;100431.19;;;24.31;100.00
13015;BME280;6573;57.696;11.950;2023-08-31T10:44:46;100412.94;;;24.36;100.00
13015;BME280;6573;57.696;11.950;2023-08-31T10:47:17;100422.31;;;24.17;100.00
13015;BME280;6573;57.696;11.950;2023-08-31T10:49:50;100426.22;;;24.25;100.00
13015;BME280;6573;57.696;11.950;2023-08-31T10:52:20;100429.00;;;24.24;100.00
13015;BME280;6573;57.696;11.950;2023-08-31T10:55:07;100420.44;;;24.31;100.00
13015;BME280;6573;57.696;11.950;2023-08-31T10:57:37;100418.41;;;24.08;100.00
13015;BME280;6573;57.696;11.950;2023-08-31T11:00:08;100417.25;;;23.70;100.00
13015;BME280;6573;57.696;11.950;2023-08-31T11:02:43;100416.97;;;23.60;100.00
13015;BME280;6573;57.696;11.950;2023-08-31T11:05:12;100410.03;;;23.84;100.00
13015;BME280;6573;57.696;11.950;2023-08-31T11:07:43;100402.44;;;24.05;100.00
13015;BME280;6573;57.696;11.950;2023-08-31T11:10:13;100412.78;;;24.25;100.00
13015;BME280;6573;57.696;11.950;2023-08-31T11:12:44;100403.16;;;24.35;100.00
13015;BME280;6573;57.696;11.950;2023-08-31T11:15:13;100398.72;;;24.34;100.00
13015;BME280;6573;57.696;11.950;2023-08-31T11:17:42;100402.78;;;24.27;100.00
13015;BME280;6573;57.696;11.950;2023-08-31T11:20:14;100403.00;;;24.24;100.00
13015;BME280;6573;57.696;11.950;2023-08-31T11:22:45;100410.38;;;24.07;100.00
13015;BME280;6573;57.696;11.950;2023-08-31T11:25:17;100409.81;;;23.47;100.00
13015;BME280;6573;57.696;11.950;2023-08-31T11:27:57;100401.25;;;22.96;100.00
13015;BME280;6573;57.696;11.950;2023-08-31T11:30:26;100407.47;;;23.55;100.00
13015;BME280;6573;57.696;11.950;2023-08-31T11:32:55;100401.16;;;23.84;100.00
13015;BME280;6573;57.696;11.950;2023-08-31T11:35:23;100401.03;;;24.14;100.00
13015;BME280;6573;57.696;11.950;2023-08-31T11:37:56;100402.34;;;24.21;100.00
13015;BME280;6573;57.696;11.950;2023-08-31T11:40:26;100403.44;;;23.90;100.00
13015;BME280;6573;57.696;11.950;2023-08-31T11:42:55;100396.34;;;23.75;100.00
13015;BME280;6573;57.696;11.950;2023-08-31T11:45:24;100404.63;;;23.44;100.00
13015;BME280;6573;57.696;11.950;2023-08-31T11:47:53;100400.59;;;23.37;100.00
13015;BME280;6573;57.696;11.950;2023-08-31T11:50:23;100405.97;;;23.51;100.00
13015;BME280;6573;57.696;11.950;2023-08-31T11:52:52;100410.63;;;23.47;100.00
13015;BME280;6573;57.696;11.950;2023-08-31T11:55:21;100405.50;;;23.44;100.00
13015;BME280;6573;57.696;11.950;2023-08-31T11:57:50;100407.28;;;23.58;100.00
13015;BME280;6573;57.696;11.950;2023-08-31T12:00:21;100400.59;;;23.79;100.00
13015;BME280;6573;57.696;11.950;2023-08-31T12:02:56;100397.09;;;23.91;100.00
13015;BME280;6573;57.696;11.950;2023-08-31T12:05:26;100400.84;;;23.89;100.00
13015;BME280;6573;57.696;11.950;2023-08-31T12:07:54;100404.59;;;23.72;100.00
13015;BME280;6573;57.696;11.950;2023-08-31T12:10:24;100409.97;;;23.72;100.00
13015;BME280;6573;57.696;11.950;2023-08-31T12:12:52;100403.97;;;23.25;100.00
13015;BME280;6573;57.696;11.950;2023-08-31T12:15:30;100413.44;;;23.46;100.00
13015;BME280;6573;57.696;11.950;2023-08-31T12:17:58;100411.78;;;23.29;100.00
13015;BME280;6573;57.696;11.950;2023-08-31T12:20:26;100419.91;;;23.28;100.00
13015;BME280;6573;57.696;11.950;2023-08-31T12:22:55;100440.16;;;22.89;100.00
13015;BME280;6573;57.696;11.950;2023-08-31T12:25:23;100443.81;;;22.73;100.00
13015;BME280;6573;57.696;11.950;2023-08-31T12:27:51;100453.63;;;22.27;100.00
13015;BME280;6573;57.696;11.950;2023-08-31T12:30:20;100464.38;;;21.61;100.00
13015;BME280;6573;57.696;11.950;2023-08-31T12:32:50;100478.41;;;20.98;100.00
13015;BME280;6573;57.696;11.950;2023-08-31T12:35:18;100481.94;;;20.45;100.00
13015;BME280;6573;57.696;11.950;2023-08-31T12:37:48;100494.38;;;20.09;100.00
13015;BME280;6573;57.696;11.950;2023-08-31T12:40:18;100512.50;;;19.82;100.00
13015;BME280;6573;57.696;11.950;2023-08-31T12:42:47;100520.69;;;19.59;100.00
13015;BME280;6573;57.696;11.950;2023-08-31T12:45:15;100522.25;;;19.45;100.00
13015;BME280;6573;57.696;11.950;2023-08-31T12:47:43;100522.31;;;19.21;100.00
13015;BME280;6573;57.696;11.950;2023-08-31T12:50:16;100512.97;;;19.11;100.00
13015;BME280;6573;57.696;11.950;2023-08-31T12:52:44;100506.81;;;18.89;100.00